Sete Quedas, Brazil
Current Conditions -  °F | °C
As of 2:00 PM on Monday 22 Dec 2014 (Local Time) from SGES Reporting Station
Broken Clouds Broken Clouds  
Wind Chill: 75°   Ceiling: 2700
Heat Index: 75°   Visibility: 6mi
Dew Point: 66°   Wind: 12mph
Humidity: 73%   Direction: 220°SW
Pressure: 29.88"   Gusts: 29mph
Location:  23.97°S, 55.04°W
Report Text: SGES 221700Z 22010G25KT 9999 BKN027 24/19 Q1012
Loading
Personal Weather Stations






























Interactive Weather Map New forecast layout! Learn more

10-Day Weather Forecast

Advertisements
Track Severe Weather on mobile